createdAt,value
2019-04-07T00:00:49.290Z,3.17
2019-04-07T00:03:19.526Z,3.07
2019-04-07T00:05:49.442Z,3.02
2019-04-07T00:08:19.031Z,2.94
2019-04-07T00:10:50.507Z,2.97
2019-04-07T00:13:20.038Z,2.95
2019-04-07T00:15:49.951Z,2.89
2019-04-07T00:18:19.536Z,3.33
2019-04-07T00:20:50.193Z,3.10
2019-04-07T00:23:20.042Z,2.86
2019-04-07T00:25:49.641Z,2.78
2019-04-07T00:28:19.635Z,2.73
2019-04-07T00:30:51.283Z,2.73
2019-04-07T00:33:20.842Z,2.76
2019-04-07T00:35:50.921Z,2.82
2019-04-07T00:38:20.406Z,2.80
2019-04-07T00:40:50.764Z,2.73
2019-04-07T00:43:20.901Z,2.74
2019-04-07T00:45:51.192Z,2.72
2019-04-07T00:48:21.177Z,2.70
2019-04-07T00:50:52.002Z,2.65
2019-04-07T00:53:22.035Z,2.58
2019-04-07T00:55:51.588Z,2.52
2019-04-07T00:58:21.467Z,2.53
2019-04-07T01:00:51.261Z,2.87
2019-04-07T01:03:20.780Z,2.96
2019-04-07T01:05:50.272Z,2.75
2019-04-07T01:08:19.765Z,2.80
2019-04-07T01:10:49.265Z,2.50
2019-04-07T01:13:18.757Z,2.36
2019-04-07T01:15:48.425Z,2.38
2019-04-07T01:18:18.201Z,2.36
2019-04-07T01:20:48.418Z,2.32
2019-04-07T01:23:18.206Z,2.26
2019-04-07T01:25:47.848Z,2.23
2019-04-07T01:28:17.342Z,2.29
2019-04-07T01:30:46.958Z,2.42
2019-04-07T01:33:16.421Z,2.32
2019-04-07T01:35:49.358Z,2.20
2019-04-07T01:38:17.965Z,2.21
2019-04-07T01:41:01.050Z,2.57
2019-04-07T01:43:38.194Z,2.59
2019-04-07T01:46:09.858Z,2.37
2019-04-07T01:48:43.704Z,2.37
2019-04-07T01:51:14.867Z,2.20
2019-04-07T01:53:49.681Z,2.06
2019-04-07T01:56:21.017Z,1.89
2019-04-07T01:58:59.370Z,1.93
2019-04-07T02:01:31.229Z,1.91
2019-04-07T02:04:02.974Z,1.90
2019-04-07T02:06:39.956Z,2.00
2019-04-07T02:09:29.043Z,1.99
2019-04-07T02:12:10.458Z,1.88
2019-04-07T02:14:41.977Z,1.81
2019-04-07T02:17:14.681Z,1.76
2019-04-07T02:20:01.343Z,1.70
2019-04-07T02:22:48.305Z,1.64
2019-04-07T02:25:19.908Z,1.63
2019-04-07T02:27:51.218Z,1.64
2019-04-07T02:30:26.145Z,1.65
2019-04-07T02:33:06.242Z,1.61
2019-04-07T02:35:37.828Z,1.62
2019-04-07T02:38:18.225Z,1.58
2019-04-07T02:40:53.438Z,1.55
2019-04-07T02:43:25.296Z,1.52
2019-04-07T02:46:05.841Z,1.49
2019-04-07T02:48:46.805Z,1.54
2019-04-07T02:51:20.788Z,1.49
2019-04-07T02:54:09.146Z,1.43
2019-04-07T02:56:56.698Z,1.81
2019-04-07T02:59:27.827Z,1.84
2019-04-07T03:02:05.784Z,1.56
2019-04-07T03:04:37.224Z,1.30
2019-04-07T03:07:11.563Z,1.15
2019-04-07T03:10:00.643Z,1.35
2019-04-07T03:12:33.229Z,1.11
2019-04-07T03:15:07.098Z,1.22
2019-04-07T03:17:54.115Z,1.46
2019-04-07T03:20:29.602Z,1.19
2019-04-07T03:23:16.394Z,1.31
2019-04-07T03:25:53.516Z,1.04
2019-04-07T03:28:42.461Z,0.91
2019-04-07T03:31:17.712Z,0.78
2019-04-07T03:33:59.632Z,0.76
2019-04-07T03:37:12.612Z,0.75
2019-04-07T03:39:20.463Z,0.76
2019-04-07T03:42:01.098Z,0.87
2019-04-07T03:44:42.815Z,0.87
2019-04-07T03:47:16.490Z,0.92
2019-04-07T03:49:47.786Z,0.94
2019-04-07T03:52:25.100Z,1.00
2019-04-07T03:55:01.989Z,0.94
2019-04-07T03:57:50.911Z,1.11
2019-04-07T04:01:02.468Z,1.11
2019-04-07T04:03:34.614Z,0.92
2019-04-07T04:06:09.087Z,0.87
2019-04-07T04:08:43.111Z,0.93
2019-04-07T04:11:18.182Z,0.86
2019-04-07T04:14:02.838Z,0.79
2019-04-07T04:16:34.104Z,0.77
2019-04-07T04:19:05.138Z,0.79
2019-04-07T04:21:34.734Z,0.99
2019-04-07T04:24:04.332Z,1.19
2019-04-07T04:26:34.348Z,1.18
2019-04-07T04:29:04.059Z,0.89
2019-04-07T04:31:33.866Z,0.71
2019-04-07T04:34:03.431Z,0.77
2019-04-07T04:36:33.492Z,0.63
2019-04-07T04:39:03.494Z,0.64
2019-04-07T04:41:34.837Z,0.85
2019-04-07T04:44:04.990Z,0.81
2019-04-07T04:46:34.894Z,0.72
2019-04-07T04:49:04.387Z,0.72
2019-04-07T04:51:37.849Z,0.70
2019-04-07T04:54:05.302Z,0.75
2019-04-07T04:56:34.845Z,0.86
2019-04-07T04:59:04.342Z,0.93
2019-04-07T05:01:34.461Z,1.06
2019-04-07T05:04:04.090Z,1.11
2019-04-07T05:06:33.589Z,1.19
2019-04-07T05:09:05.469Z,1.32
2019-04-07T05:11:35.862Z,1.40
2019-04-07T05:14:06.017Z,1.45
2019-04-07T05:16:35.669Z,1.56
2019-04-07T05:19:05.189Z,1.85
2019-04-07T05:21:35.006Z,2.13
2019-04-07T05:24:04.744Z,2.06
2019-04-07T05:26:34.771Z,2.18
2019-04-07T05:29:04.741Z,2.28
2019-04-07T05:31:34.763Z,2.53
2019-04-07T05:34:04.243Z,2.92
2019-04-07T05:36:33.756Z,2.74
2019-04-07T05:39:05.334Z,2.58
2019-04-07T05:41:34.864Z,2.51
2019-04-07T05:44:04.640Z,2.64
2019-04-07T05:46:38.639Z,2.78
2019-04-07T05:49:05.489Z,2.92
2019-04-07T05:51:34.989Z,3.10
2019-04-07T05:54:04.604Z,3.27
2019-04-07T05:56:34.813Z,3.43
2019-04-07T05:59:04.462Z,3.60
2019-04-07T06:01:34.539Z,3.84
2019-04-07T06:04:04.063Z,4.31
2019-04-07T06:06:34.271Z,4.74
2019-04-07T06:09:06.389Z,5.02
2019-04-07T06:11:36.236Z,4.61
2019-04-07T06:14:05.815Z,4.70
2019-04-07T06:16:35.324Z,5.22
2019-04-07T06:19:07.883Z,5.22
2019-04-07T06:21:36.632Z,5.08
2019-04-07T06:24:06.268Z,5.05
2019-04-07T06:26:36.427Z,5.64
2019-04-07T06:29:06.988Z,5.79
2019-04-07T06:31:36.514Z,5.90
2019-04-07T06:34:10.054Z,6.20
2019-04-07T06:36:38.535Z,6.23
2019-04-07T06:39:09.540Z,6.51
2019-04-07T06:41:39.146Z,7.23
2019-04-07T06:44:13.515Z,7.86
2019-04-07T06:46:41.541Z,8.08
2019-04-07T06:49:21.935Z,8.53
2019-04-07T06:52:02.945Z,8.29
2019-04-07T06:54:50.064Z,9.40
2019-04-07T06:57:26.782Z,10.11
2019-04-07T07:00:12.807Z,10.83
2019-04-07T07:02:45.434Z,10.94
2019-04-07T07:05:35.000Z,11.43
2019-04-07T07:08:12.647Z,11.64
2019-04-07T07:10:50.798Z,11.66
2019-04-07T07:13:32.413Z,11.83
2019-04-07T07:16:09.599Z,11.34
2019-04-07T07:18:43.670Z,11.25
2019-04-07T07:21:31.527Z,11.67
2019-04-07T07:24:01.217Z,12.66
2019-04-07T07:26:35.102Z,14.56
2019-04-07T07:29:02.074Z,15.06
2019-04-07T07:31:31.656Z,15.40
2019-04-07T07:34:01.185Z,14.16
2019-04-07T07:36:30.710Z,14.45
2019-04-07T07:39:02.201Z,14.58
2019-04-07T07:41:31.586Z,14.25
2019-04-07T07:44:03.626Z,14.15
2019-04-07T07:46:32.430Z,14.60
2019-04-07T07:49:02.192Z,15.67
2019-04-07T07:51:31.852Z,17.35
2019-04-07T07:54:02.123Z,18.73
2019-04-07T07:56:31.705Z,20.11
2019-04-07T07:59:01.779Z,18.59
2019-04-07T08:01:32.247Z,16.57
2019-04-07T08:04:02.018Z,15.50
2019-04-07T08:06:31.749Z,15.58
2019-04-07T08:09:11.983Z,16.75
2019-04-07T08:11:34.396Z,19.36
2019-04-07T08:14:03.851Z,21.51
2019-04-07T08:16:33.574Z,22.77
2019-04-07T08:19:03.859Z,22.76
2019-04-07T08:21:33.736Z,22.43
2019-04-07T08:24:03.649Z,23.56
2019-04-07T08:26:33.341Z,22.31
2019-04-07T08:29:05.753Z,21.53
2019-04-07T08:31:34.868Z,20.31
2019-04-07T08:34:04.653Z,18.73
2019-04-07T08:36:34.777Z,18.33
2019-04-07T08:39:18.528Z,18.30
2019-04-07T08:41:40.656Z,18.03
2019-04-07T08:44:09.370Z,18.87
2019-04-07T08:46:41.744Z,18.72
2019-04-07T08:49:10.173Z,19.07
2019-04-07T08:51:40.407Z,17.41
2019-04-07T08:54:09.969Z,16.57
2019-04-07T08:56:39.464Z,17.10
2019-04-07T08:59:12.123Z,18.26
2019-04-07T09:01:40.495Z,19.30
2019-04-07T09:04:10.037Z,19.13
2019-04-07T09:06:39.682Z,19.97
2019-04-07T09:09:09.953Z,21.14
2019-04-07T09:11:41.230Z,19.23
2019-04-07T09:14:10.918Z,18.95
2019-04-07T09:16:58.404Z,19.83
2019-04-07T09:19:30.958Z,21.54
2019-04-07T09:22:10.625Z,21.39
2019-04-07T09:24:41.767Z,21.60
2019-04-07T09:27:17.117Z,20.99
2019-04-07T09:29:58.797Z,19.82
2019-04-07T09:32:46.046Z,20.18
2019-04-07T09:35:33.442Z,19.19
2019-04-07T09:38:08.109Z,19.28
2019-04-07T09:40:55.973Z,18.47
2019-04-07T09:43:43.921Z,20.11
2019-04-07T09:46:31.172Z,18.96
2019-04-07T09:49:17.075Z,18.58
2019-04-07T09:52:00.043Z,17.36
2019-04-07T09:54:31.205Z,17.42
2019-04-07T09:57:05.057Z,17.83
2019-04-07T09:59:52.452Z,19.18
2019-04-07T10:02:30.761Z,18.34
2019-04-07T10:05:03.357Z,20.27
2019-04-07T10:07:34.888Z,20.42
2019-04-07T10:10:14.889Z,20.50
2019-04-07T10:13:02.087Z,20.82
2019-04-07T10:15:31.679Z,21.24
2019-04-07T10:18:08.785Z,20.69
2019-04-07T10:20:52.053Z,19.58
2019-04-07T10:23:40.292Z,19.91
2019-04-07T10:26:16.989Z,18.63
2019-04-07T10:28:57.785Z,19.37
2019-04-07T10:31:31.692Z,18.94
2019-04-07T10:34:19.091Z,19.65
2019-04-07T10:36:51.019Z,19.67
2019-04-07T10:39:38.156Z,19.74
2019-04-07T10:42:25.542Z,20.49
2019-04-07T10:45:00.871Z,20.57
2019-04-07T10:47:46.630Z,21.99
2019-04-07T10:50:24.611Z,22.29
2019-04-07T10:53:02.812Z,23.13
2019-04-07T10:55:38.060Z,22.22
2019-04-07T10:58:15.238Z,23.72
2019-04-07T11:00:49.375Z,22.07
2019-04-07T11:03:30.224Z,21.02
2019-04-07T11:06:17.012Z,20.49
2019-04-07T11:08:49.017Z,19.97
2019-04-07T11:11:36.084Z,20.00
2019-04-07T11:14:17.355Z,19.43
2019-04-07T11:17:04.838Z,18.88
2019-04-07T11:19:36.517Z,17.87
2019-04-07T11:22:23.683Z,17.95
2019-04-07T11:25:09.756Z,17.22
2019-04-07T11:27:50.421Z,18.78
2019-04-07T11:30:27.512Z,19.61
2019-04-07T11:32:57.538Z,21.50
2019-04-07T11:35:32.955Z,21.89
2019-04-07T11:38:13.568Z,22.73
2019-04-07T11:40:50.927Z,22.66
2019-04-07T11:43:31.494Z,23.39
2019-04-07T11:46:03.361Z,22.47
2019-04-07T11:48:35.101Z,23.55
2019-04-07T11:51:09.595Z,23.99
2019-04-07T11:53:56.596Z,24.02
2019-04-07T11:56:28.562Z,23.82
2019-04-07T11:59:09.169Z,22.88
2019-04-07T12:01:41.939Z,23.31
2019-04-07T12:04:22.778Z,22.26
2019-04-07T12:07:11.096Z,20.64
2019-04-07T12:09:57.111Z,21.28
2019-04-07T12:12:31.179Z,21.94
2019-04-07T12:15:02.312Z,22.32
2019-04-07T12:17:49.186Z,22.74
2019-04-07T12:20:36.541Z,23.75
2019-04-07T12:23:15.913Z,24.70
2019-04-07T12:25:46.097Z,22.38
2019-04-07T12:28:19.107Z,21.91
2019-04-07T12:30:59.925Z,22.12
2019-04-07T12:33:44.047Z,22.31
2019-04-07T12:36:15.180Z,21.69
2019-04-07T12:38:45.090Z,22.40
2019-04-07T12:41:23.416Z,22.93
2019-04-07T12:43:57.727Z,22.74
2019-04-07T12:46:30.044Z,20.91
2019-04-07T12:49:06.797Z,20.86
2019-04-07T12:51:47.236Z,21.73
2019-04-07T12:54:34.251Z,22.33
2019-04-07T12:57:21.968Z,22.94
2019-04-07T13:00:03.151Z,22.55
2019-04-07T13:02:53.810Z,22.70
2019-04-07T13:05:39.900Z,22.73
2019-04-07T13:08:11.045Z,20.28
2019-04-07T13:10:46.007Z,19.85
2019-04-07T13:13:31.645Z,20.82
2019-04-07T13:16:01.206Z,21.14
2019-04-07T13:18:48.552Z,20.60
2019-04-07T13:21:24.845Z,20.85
2019-04-07T13:24:03.631Z,20.66
2019-04-07T13:26:50.041Z,20.62
2019-04-07T13:29:30.160Z,20.69
2019-04-07T13:32:18.781Z,20.57
2019-04-07T13:34:49.952Z,20.06
2019-04-07T13:37:36.734Z,20.59
2019-04-07T13:40:13.197Z,20.88
2019-04-07T13:42:56.653Z,21.02
2019-04-07T13:45:44.612Z,21.54
2019-04-07T13:48:29.094Z,19.71
2019-04-07T13:51:00.386Z,19.90
2019-04-07T13:53:34.342Z,20.15
2019-04-07T13:56:12.330Z,19.93
2019-04-07T13:58:44.316Z,19.66
2019-04-07T14:01:24.227Z,19.73
2019-04-07T14:04:12.045Z,18.66
2019-04-07T14:06:45.034Z,18.70
2019-04-07T14:09:32.489Z,18.57
2019-04-07T14:12:14.259Z,17.85
2019-04-07T14:14:45.723Z,16.63
2019-04-07T14:17:18.146Z,17.22
2019-04-07T14:19:49.854Z,17.96
2019-04-07T14:22:23.371Z,17.99
2019-04-07T14:25:07.974Z,17.27
2019-04-07T14:27:47.660Z,17.49
2019-04-07T14:30:19.179Z,16.96
2019-04-07T14:33:02.334Z,17.05
2019-04-07T14:35:39.166Z,17.11
2019-04-07T14:38:11.069Z,16.73
2019-04-07T14:40:45.677Z,16.50
2019-04-07T14:43:17.695Z,16.68
2019-04-07T14:45:54.637Z,16.61
2019-04-07T14:48:33.726Z,16.56
2019-04-07T14:51:05.858Z,16.89
2019-04-07T14:53:53.081Z,16.96
2019-04-07T14:56:40.846Z,16.71
2019-04-07T14:59:13.065Z,16.70
2019-04-07T15:01:44.733Z,16.52
2019-04-07T15:04:14.456Z,16.73
2019-04-07T15:06:45.974Z,17.07
2019-04-07T15:09:22.772Z,17.54
2019-04-07T15:11:53.905Z,17.79
2019-04-07T15:14:23.424Z,17.68
2019-04-07T15:16:53.511Z,17.23
2019-04-07T15:19:23.421Z,17.11
2019-04-07T15:21:54.975Z,16.98
2019-04-07T15:24:24.186Z,17.12
2019-04-07T15:26:54.123Z,16.83
2019-04-07T15:29:24.269Z,16.47
2019-04-07T15:31:54.450Z,16.37
2019-04-07T15:34:24.200Z,16.37
2019-04-07T15:36:53.875Z,16.14
2019-04-07T15:39:25.675Z,16.00
2019-04-07T15:41:55.529Z,15.58
2019-04-07T15:44:25.901Z,15.52
2019-04-07T15:46:57.474Z,15.64
2019-04-07T15:49:28.253Z,15.67
2019-04-07T15:51:59.331Z,15.50
2019-04-07T15:54:29.654Z,15.39
2019-04-07T15:57:00.022Z,15.47
2019-04-07T15:59:30.328Z,15.40
2019-04-07T16:02:01.242Z,15.31
2019-04-07T16:04:30.819Z,15.14
2019-04-07T16:07:00.346Z,15.22
2019-04-07T16:09:39.703Z,15.09
2019-04-07T16:12:01.742Z,15.48
2019-04-07T16:14:32.050Z,14.79
2019-04-07T16:17:04.135Z,14.75
2019-04-07T16:19:38.167Z,14.73
2019-04-07T16:22:04.345Z,14.64
2019-04-07T16:24:34.718Z,14.54
2019-04-07T16:27:06.707Z,14.46
2019-04-07T16:29:36.440Z,14.59
2019-04-07T16:32:06.290Z,14.45
2019-04-07T16:34:39.023Z,14.76
2019-04-07T16:37:07.055Z,15.15
2019-04-07T16:39:37.461Z,14.64
2019-04-07T16:42:07.175Z,14.45
2019-04-07T16:44:41.830Z,14.62
2019-04-07T16:47:17.801Z,14.53
2019-04-07T16:49:43.629Z,14.28
2019-04-07T16:52:10.651Z,14.35
2019-04-07T16:54:43.464Z,14.36
2019-04-07T16:57:11.392Z,14.28
2019-04-07T16:59:43.445Z,14.10
2019-04-07T17:02:14.423Z,13.90
2019-04-07T17:04:43.607Z,13.83
2019-04-07T17:07:15.696Z,13.36
2019-04-07T17:09:44.672Z,13.22
2019-04-07T17:12:15.004Z,13.13
2019-04-07T17:14:44.881Z,12.98
2019-04-07T17:17:18.282Z,12.98
2019-04-07T17:19:45.764Z,13.10
2019-04-07T17:22:16.886Z,12.91
2019-04-07T17:24:47.721Z,12.83
2019-04-07T17:27:18.259Z,12.73
2019-04-07T17:29:52.582Z,12.65
2019-04-07T17:32:19.918Z,12.61
2019-04-07T17:34:49.811Z,12.56
2019-04-07T17:37:20.079Z,12.52
2019-04-07T17:39:51.475Z,12.50
2019-04-07T17:42:25.607Z,12.49
2019-04-07T17:44:59.856Z,12.44
2019-04-07T17:47:38.088Z,12.42
2019-04-07T17:50:12.621Z,12.45
2019-04-07T17:52:44.114Z,12.65
2019-04-07T17:55:27.635Z,12.90
2019-04-07T17:58:10.147Z,12.76
2019-04-07T18:00:42.189Z,12.98
2019-04-07T18:03:14.191Z,13.16
2019-04-07T18:06:01.752Z,12.98
2019-04-07T18:08:45.311Z,12.90
2019-04-07T18:11:30.120Z,12.78
2019-04-07T18:14:02.125Z,12.57
2019-04-07T18:16:40.785Z,12.31
2019-04-07T18:19:15.254Z,12.34
2019-04-07T18:21:52.414Z,11.95
2019-04-07T18:24:26.079Z,11.85
2019-04-07T18:26:54.900Z,12.09
2019-04-07T18:29:29.553Z,12.02
2019-04-07T18:32:14.518Z,12.07
2019-04-07T18:34:58.742Z,11.95
2019-04-07T18:37:31.168Z,11.96
2019-04-07T18:40:04.791Z,12.09
2019-04-07T18:42:35.005Z,12.08
2019-04-07T18:45:18.962Z,12.09
2019-04-07T18:47:55.858Z,12.05
2019-04-07T18:50:25.029Z,11.89
2019-04-07T18:53:03.696Z,11.93
2019-04-07T18:55:35.357Z,11.99
2019-04-07T18:58:18.329Z,11.96
2019-04-07T19:00:57.407Z,11.83
2019-04-07T19:03:37.424Z,11.69
2019-04-07T19:06:18.072Z,11.49
2019-04-07T19:08:58.455Z,11.02
2019-04-07T19:11:37.348Z,10.91
2019-04-07T19:14:31.579Z,10.80
2019-04-07T19:16:50.833Z,10.46
2019-04-07T19:19:30.473Z,10.41
2019-04-07T19:22:10.992Z,10.44
2019-04-07T19:24:46.285Z,10.36
2019-04-07T19:27:21.262Z,10.25
2019-04-07T19:29:55.688Z,10.05
2019-04-07T19:32:27.153Z,9.94
2019-04-07T19:35:13.376Z,9.95
2019-04-07T19:38:00.442Z,9.92
2019-04-07T19:40:34.298Z,9.80
2019-04-07T19:43:12.531Z,9.78
2019-04-07T19:45:55.245Z,9.64
2019-04-07T19:48:42.719Z,9.67
2019-04-07T19:51:30.603Z,9.63
2019-04-07T19:54:02.477Z,9.70
2019-04-07T19:56:37.188Z,9.88
2019-04-07T19:59:10.013Z,9.60
2019-04-07T20:01:44.396Z,9.86
2019-04-07T20:04:18.534Z,9.87
2019-04-07T20:07:00.558Z,9.74
2019-04-07T20:09:45.171Z,9.70
2019-04-07T20:12:16.260Z,9.72
2019-04-07T20:15:08.780Z,9.78
2019-04-07T20:17:40.930Z,9.71
2019-04-07T20:20:24.392Z,9.48
2019-04-07T20:23:06.318Z,9.54
2019-04-07T20:25:41.059Z,9.71
2019-04-07T20:28:15.301Z,9.54
2019-04-07T20:30:51.730Z,9.54
2019-04-07T20:33:31.412Z,9.18
2019-04-07T20:36:00.010Z,9.15
2019-04-07T20:38:46.988Z,9.19
2019-04-07T20:41:18.158Z,9.29
2019-04-07T20:43:51.285Z,9.15
2019-04-07T20:46:24.018Z,8.94
2019-04-07T20:48:53.965Z,8.95
2019-04-07T20:51:34.066Z,8.83
2019-04-07T20:54:05.597Z,8.79
2019-04-07T20:56:45.879Z,8.75
2019-04-07T20:59:31.438Z,8.86
2019-04-07T21:02:07.100Z,8.76
2019-04-07T21:04:36.344Z,8.68
2019-04-07T21:07:05.645Z,8.76
2019-04-07T21:09:42.509Z,8.86
2019-04-07T21:12:32.274Z,9.14
2019-04-07T21:15:16.151Z,9.09
2019-04-07T21:17:36.369Z,9.01
2019-04-07T21:20:24.237Z,9.02
2019-04-07T21:23:14.068Z,9.04
2019-04-07T21:25:46.836Z,8.90
2019-04-07T21:28:20.421Z,8.79
2019-04-07T21:30:51.601Z,8.74
2019-04-07T21:33:23.613Z,8.75
2019-04-07T21:36:10.456Z,8.80
2019-04-07T21:38:43.278Z,8.88
2019-04-07T21:41:30.717Z,8.84
2019-04-07T21:44:03.008Z,8.83
2019-04-07T21:46:44.023Z,8.90
2019-04-07T21:49:17.826Z,8.76
2019-04-07T21:51:48.209Z,8.83
2019-04-07T21:54:22.640Z,8.89
2019-04-07T21:56:53.989Z,8.94
2019-04-07T21:59:28.471Z,8.90
2019-04-07T22:02:15.856Z,8.90
2019-04-07T22:04:54.062Z,8.99
2019-04-07T22:07:23.964Z,8.94
2019-04-07T22:09:55.126Z,8.68
2019-04-07T22:12:28.691Z,8.73
2019-04-07T22:14:56.144Z,8.93
2019-04-07T22:17:25.749Z,8.99
2019-04-07T22:19:55.220Z,8.81
2019-04-07T22:22:26.594Z,8.90
2019-04-07T22:24:56.017Z,8.72
2019-04-07T22:27:27.567Z,8.50
2019-04-07T22:29:59.779Z,8.40
2019-04-07T22:32:29.165Z,8.30
2019-04-07T22:35:02.615Z,8.36
2019-04-07T22:37:30.256Z,8.32
2019-04-07T22:40:02.066Z,8.34
2019-04-07T22:42:31.030Z,8.36
2019-04-07T22:45:00.540Z,8.35
2019-04-07T22:47:30.036Z,8.60
2019-04-07T22:50:02.526Z,8.80
2019-04-07T22:52:30.794Z,8.87
2019-04-07T22:55:03.621Z,9.08
2019-04-07T22:57:31.554Z,8.71
2019-04-07T23:00:01.068Z,8.40
2019-04-07T23:02:30.589Z,8.26
2019-04-07T23:05:00.834Z,8.26
2019-04-07T23:07:30.365Z,8.67
2019-04-07T23:10:00.467Z,8.70
2019-04-07T23:12:29.948Z,8.37
2019-04-07T23:14:59.460Z,8.15
2019-04-07T23:17:28.953Z,8.06
2019-04-07T23:19:58.864Z,8.35
2019-04-07T23:22:28.438Z,8.43
2019-04-07T23:24:57.956Z,8.53
2019-04-07T23:27:27.668Z,8.55
2019-04-07T23:29:57.211Z,8.51
2019-04-07T23:32:27.482Z,8.34
2019-04-07T23:34:57.650Z,8.24
2019-04-07T23:37:27.123Z,8.47
2019-04-07T23:39:56.645Z,8.58
2019-04-07T23:42:26.386Z,8.56
2019-04-07T23:44:56.029Z,8.62
2019-04-07T23:47:25.848Z,8.49
2019-04-07T23:49:55.362Z,8.73
2019-04-07T23:52:25.157Z,8.52
2019-04-07T23:54:54.644Z,8.65
2019-04-07T23:57:24.207Z,8.88
2019-04-07T23:59:54.104Z,8.87
